createdAt,value
2016-08-17T00:00:01.233Z,0
2016-08-17T00:01:01.242Z,0
2016-08-17T00:02:01.241Z,0
2016-08-17T00:03:01.233Z,0
2016-08-17T00:04:01.236Z,0
2016-08-17T00:05:01.238Z,0
2016-08-17T00:06:01.237Z,0
2016-08-17T00:07:01.238Z,0
2016-08-17T00:08:01.237Z,0
2016-08-17T00:09:01.246Z,0
2016-08-17T00:10:01.241Z,0
2016-08-17T00:11:00.522Z,0
2016-08-17T00:12:01.241Z,0
2016-08-17T00:13:01.249Z,0
2016-08-17T00:14:01.246Z,0
2016-08-17T00:15:01.249Z,0
2016-08-17T00:16:01.249Z,0
2016-08-17T00:17:01.264Z,0
2016-08-17T00:18:01.249Z,0
2016-08-17T00:19:01.254Z,0
2016-08-17T00:20:01.250Z,0
2016-08-17T00:21:01.248Z,0
2016-08-17T00:22:01.250Z,0
2016-08-17T00:23:01.253Z,0
2016-08-17T00:24:01.253Z,0
2016-08-17T00:25:01.253Z,0
2016-08-17T00:26:01.254Z,0
2016-08-17T00:27:01.254Z,0
2016-08-17T00:28:01.258Z,0
2016-08-17T00:29:01.257Z,0
2016-08-17T00:30:01.275Z,0
2016-08-17T00:31:01.258Z,0
2016-08-17T00:32:01.262Z,0
2016-08-17T00:33:01.262Z,0
2016-08-17T00:34:01.262Z,0
2016-08-17T00:35:01.279Z,0
2016-08-17T00:36:01.266Z,0
2016-08-17T00:37:01.262Z,0
2016-08-17T00:38:01.266Z,0
2016-08-17T00:39:01.266Z,0
2016-08-17T00:40:01.266Z,0
2016-08-17T00:41:01.266Z,0
2016-08-17T00:42:01.270Z,0
2016-08-17T00:43:01.271Z,0
2016-08-17T00:44:01.271Z,0
2016-08-17T00:45:01.271Z,0
2016-08-17T00:46:01.270Z,0
2016-08-17T00:47:01.270Z,0
2016-08-17T00:48:01.271Z,0
2016-08-17T00:49:01.274Z,0
2016-08-17T00:50:01.274Z,0
2016-08-17T00:51:01.275Z,0
2016-08-17T00:52:01.275Z,0
2016-08-17T00:53:01.274Z,0
2016-08-17T00:54:01.274Z,0
2016-08-17T00:55:01.278Z,0
2016-08-17T00:56:01.279Z,0
2016-08-17T00:57:01.278Z,0
2016-08-17T00:58:01.277Z,0
2016-08-17T00:59:01.287Z,0
2016-08-17T01:00:01.283Z,0
2016-08-17T01:01:01.282Z,0
2016-08-17T01:02:01.278Z,0
2016-08-17T01:03:01.283Z,0
2016-08-17T01:04:01.282Z,0
2016-08-17T01:05:01.283Z,0
2016-08-17T01:06:01.286Z,0
2016-08-17T01:07:01.287Z,0
2016-08-17T01:08:01.295Z,0
2016-08-17T01:09:00.566Z,0
2016-08-17T01:10:01.289Z,0
2016-08-17T01:11:01.287Z,0
2016-08-17T01:12:01.291Z,0
2016-08-17T01:13:01.287Z,0
2016-08-17T01:14:01.294Z,0
2016-08-17T01:15:01.291Z,0
2016-08-17T01:16:01.295Z,0
2016-08-17T01:17:01.298Z,0
2016-08-17T01:18:01.295Z,0
2016-08-17T01:19:01.295Z,0
2016-08-17T01:20:01.292Z,0
2016-08-17T01:21:01.295Z,0
2016-08-17T01:22:01.303Z,0
2016-08-17T01:23:01.295Z,0
2016-08-17T01:24:01.296Z,0
2016-08-17T01:25:01.295Z,0
2016-08-17T01:26:01.295Z,0
2016-08-17T01:27:01.299Z,0
2016-08-17T01:28:01.307Z,0
2016-08-17T01:29:01.299Z,0
2016-08-17T01:30:01.299Z,0
2016-08-17T01:31:01.299Z,0
2016-08-17T01:32:01.300Z,0
2016-08-17T01:33:01.299Z,0
2016-08-17T01:34:01.300Z,0
2016-08-17T01:35:01.308Z,0
2016-08-17T01:36:01.303Z,0
2016-08-17T01:37:01.318Z,0
2016-08-17T01:38:01.304Z,0
2016-08-17T01:39:01.304Z,0
2016-08-17T01:40:01.315Z,0
2016-08-17T01:41:01.304Z,0
2016-08-17T01:42:01.304Z,0
2016-08-17T01:43:01.319Z,0
2016-08-17T01:44:01.307Z,0
2016-08-17T01:45:01.308Z,0
2016-08-17T01:46:01.308Z,0
2016-08-17T01:47:01.307Z,0
2016-08-17T01:48:01.307Z,0
2016-08-17T01:49:01.308Z,0
2016-08-17T01:50:01.320Z,0
2016-08-17T01:51:01.307Z,0
2016-08-17T01:52:01.311Z,0
2016-08-17T01:53:01.312Z,0
2016-08-17T01:54:01.312Z,0
2016-08-17T01:55:01.312Z,0
2016-08-17T01:56:01.316Z,0
2016-08-17T01:57:01.313Z,0
2016-08-17T01:58:01.337Z,0
2016-08-17T01:59:01.311Z,0
2016-08-17T02:00:01.312Z,0
2016-08-17T02:01:01.316Z,0
2016-08-17T02:02:01.324Z,0
2016-08-17T02:03:01.320Z,0
2016-08-17T02:04:01.322Z,0
2016-08-17T02:05:01.317Z,0
2016-08-17T02:06:01.325Z,0
2016-08-17T02:07:01.323Z,0
2016-08-17T02:08:01.317Z,0
2016-08-17T02:09:01.325Z,0
2016-08-17T02:10:01.321Z,0
2016-08-17T02:11:01.321Z,0
2016-08-17T02:12:01.320Z,0
2016-08-17T02:13:01.321Z,0
2016-08-17T02:14:01.318Z,0
2016-08-17T02:15:01.333Z,0
2016-08-17T02:16:01.321Z,0
2016-08-17T02:17:01.322Z,0
2016-08-17T02:18:01.338Z,0
2016-08-17T02:19:01.325Z,0
2016-08-17T02:20:00.605Z,0
2016-08-17T02:21:01.325Z,0
2016-08-17T02:22:01.329Z,0
2016-08-17T02:23:01.326Z,0
2016-08-17T02:24:01.326Z,0
2016-08-17T02:25:01.324Z,0
2016-08-17T02:26:01.333Z,0
2016-08-17T02:27:01.330Z,0
2016-08-17T02:28:01.326Z,0
2016-08-17T02:29:01.325Z,0
2016-08-17T02:30:01.329Z,0
2016-08-17T02:31:01.329Z,0
2016-08-17T02:32:01.431Z,0
2016-08-17T02:33:01.329Z,0
2016-08-17T02:34:01.330Z,0
2016-08-17T02:35:01.330Z,0
2016-08-17T02:36:01.337Z,0
2016-08-17T02:37:01.329Z,0
2016-08-17T02:38:01.334Z,0
2016-08-17T02:39:01.334Z,0
2016-08-17T02:40:01.330Z,0
2016-08-17T02:41:01.330Z,0
2016-08-17T02:42:01.334Z,0
2016-08-17T02:43:01.343Z,0
2016-08-17T02:44:01.334Z,0
2016-08-17T02:45:01.338Z,0
2016-08-17T02:46:01.342Z,0
2016-08-17T02:47:01.350Z,0
2016-08-17T02:48:01.334Z,0
2016-08-17T02:49:01.334Z,0
2016-08-17T02:50:01.334Z,0
2016-08-17T02:51:01.343Z,0
2016-08-17T02:52:01.341Z,0
2016-08-17T02:53:01.334Z,0
2016-08-17T02:54:01.337Z,0
2016-08-17T02:55:01.344Z,0
2016-08-17T02:56:01.342Z,0
2016-08-17T02:57:01.338Z,0
2016-08-17T02:58:01.338Z,0
2016-08-17T02:59:01.342Z,0
2016-08-17T03:00:01.339Z,0
2016-08-17T03:01:01.339Z,0
2016-08-17T03:02:01.343Z,0
2016-08-17T03:03:01.342Z,0
2016-08-17T03:04:01.343Z,0
2016-08-17T03:05:01.339Z,0
2016-08-17T03:06:01.343Z,0
2016-08-17T03:07:01.338Z,0
2016-08-17T03:08:01.339Z,0
2016-08-17T03:09:01.339Z,0
2016-08-17T03:10:01.339Z,0
2016-08-17T03:11:01.339Z,0
2016-08-17T03:12:01.343Z,0
2016-08-17T03:13:01.340Z,0
2016-08-17T03:14:01.343Z,0
2016-08-17T03:15:01.351Z,0
2016-08-17T03:16:01.343Z,0
2016-08-17T03:17:01.342Z,0
2016-08-17T03:18:01.347Z,0
2016-08-17T03:19:01.367Z,0
2016-08-17T03:20:01.344Z,0
2016-08-17T03:21:00.632Z,0
2016-08-17T03:22:01.347Z,0
2016-08-17T03:23:01.344Z,0
2016-08-17T03:24:01.347Z,0
2016-08-17T03:25:01.344Z,0
2016-08-17T03:26:01.348Z,0
2016-08-17T03:27:01.347Z,0
2016-08-17T03:28:01.360Z,0
2016-08-17T03:29:01.344Z,0
2016-08-17T03:30:01.348Z,0
2016-08-17T03:31:01.344Z,0
2016-08-17T03:32:01.348Z,0
2016-08-17T03:33:01.360Z,0
2016-08-17T03:34:01.348Z,0
2016-08-17T03:35:01.362Z,0
2016-08-17T03:36:01.364Z,0
2016-08-17T03:37:01.344Z,0
2016-08-17T03:38:01.347Z,0
2016-08-17T03:39:01.348Z,0
2016-08-17T03:40:01.349Z,0
2016-08-17T03:41:01.355Z,0
2016-08-17T03:42:01.347Z,0
2016-08-17T03:43:01.347Z,0
2016-08-17T03:44:01.347Z,0
2016-08-17T03:45:01.348Z,0
2016-08-17T03:46:01.348Z,0
2016-08-17T03:47:01.348Z,0
2016-08-17T03:48:01.347Z,0
2016-08-17T03:49:01.348Z,0
2016-08-17T03:50:01.348Z,0
2016-08-17T03:51:01.352Z,0
2016-08-17T03:52:01.352Z,0
2016-08-17T03:53:01.348Z,0
2016-08-17T03:54:01.351Z,0
2016-08-17T03:55:01.356Z,0
2016-08-17T03:56:01.352Z,0
2016-08-17T03:57:01.356Z,0
2016-08-17T03:58:01.352Z,0
2016-08-17T03:59:01.352Z,0
2016-08-17T04:00:01.353Z,0
2016-08-17T04:01:01.353Z,0
2016-08-17T04:02:01.353Z,0
2016-08-17T04:03:01.356Z,0
2016-08-17T04:04:01.360Z,0
2016-08-17T04:05:01.353Z,0
2016-08-17T04:06:01.353Z,0
2016-08-17T04:07:01.352Z,0
2016-08-17T04:08:01.352Z,0
2016-08-17T04:09:01.352Z,0
2016-08-17T04:10:01.365Z,0
2016-08-17T04:11:01.353Z,0
2016-08-17T04:12:01.369Z,0
2016-08-17T04:13:01.353Z,0
2016-08-17T04:14:01.352Z,0
2016-08-17T04:15:01.357Z,0
2016-08-17T04:16:01.352Z,0
2016-08-17T04:17:01.353Z,0
2016-08-17T04:18:01.365Z,0
2016-08-17T04:19:01.357Z,0
2016-08-17T04:20:01.352Z,0
2016-08-17T04:21:01.362Z,0
2016-08-17T04:22:01.353Z,0
2016-08-17T04:23:01.362Z,0
2016-08-17T04:24:01.358Z,0
2016-08-17T04:25:01.353Z,4
2016-08-17T04:26:01.353Z,4
2016-08-17T04:27:01.370Z,4
2016-08-17T04:28:01.353Z,0
2016-08-17T04:29:01.353Z,0
2016-08-17T04:30:01.353Z,4
2016-08-17T04:31:01.354Z,4
2016-08-17T04:32:01.406Z,4
2016-08-17T04:33:01.362Z,4
2016-08-17T04:34:01.358Z,4
2016-08-17T04:35:01.353Z,4
2016-08-17T04:36:01.354Z,4
2016-08-17T04:37:01.358Z,4
2016-08-17T04:38:01.354Z,4
2016-08-17T04:39:01.354Z,8
2016-08-17T04:40:01.353Z,8
2016-08-17T04:41:01.353Z,8
2016-08-17T04:42:01.354Z,4
2016-08-17T04:43:01.358Z,4
2016-08-17T04:44:01.361Z,4
2016-08-17T04:45:01.358Z,4
2016-08-17T04:46:01.361Z,4
2016-08-17T04:47:01.354Z,8
2016-08-17T04:48:01.358Z,8
2016-08-17T04:49:01.354Z,8
2016-08-17T04:50:01.357Z,8
2016-08-17T04:51:01.362Z,8
2016-08-17T04:52:01.367Z,12
2016-08-17T04:53:01.354Z,8
2016-08-17T04:54:01.354Z,8
2016-08-17T04:55:01.354Z,8
2016-08-17T04:56:01.354Z,12
2016-08-17T04:57:01.355Z,12
2016-08-17T04:58:01.354Z,8
2016-08-17T04:59:01.354Z,12
2016-08-17T05:00:01.358Z,12
2016-08-17T05:01:01.355Z,12
2016-08-17T05:02:01.353Z,12
2016-08-17T05:03:01.367Z,12
2016-08-17T05:04:01.354Z,16
2016-08-17T05:05:01.350Z,12
2016-08-17T05:06:01.359Z,16
2016-08-17T05:07:01.355Z,16
2016-08-17T05:08:01.355Z,20
2016-08-17T05:09:01.354Z,16
2016-08-17T05:10:01.355Z,20
2016-08-17T05:11:01.363Z,20
2016-08-17T05:12:01.354Z,20
2016-08-17T05:13:01.356Z,20
2016-08-17T05:14:01.371Z,20
2016-08-17T05:15:01.355Z,24
2016-08-17T05:16:01.355Z,20
2016-08-17T05:17:01.355Z,24
2016-08-17T05:18:01.359Z,24
2016-08-17T05:19:01.355Z,24
2016-08-17T05:20:01.355Z,24
2016-08-17T05:21:01.359Z,24
2016-08-17T05:22:01.423Z,24
2016-08-17T05:23:00.631Z,24
2016-08-17T05:24:01.355Z,24
2016-08-17T05:25:01.355Z,24
2016-08-17T05:26:01.355Z,24
2016-08-17T05:27:01.363Z,24
2016-08-17T05:28:00.639Z,28
2016-08-17T05:29:01.356Z,24
2016-08-17T05:30:01.355Z,24
2016-08-17T05:31:01.355Z,28
2016-08-17T05:32:01.359Z,28
2016-08-17T05:33:01.364Z,32
2016-08-17T05:34:01.364Z,36
2016-08-17T05:35:01.356Z,40
2016-08-17T05:36:01.355Z,40
2016-08-17T05:37:01.367Z,44
2016-08-17T05:38:01.359Z,48
2016-08-17T05:39:01.364Z,44
2016-08-17T05:40:01.359Z,48
2016-08-17T05:41:01.363Z,52
2016-08-17T05:42:01.364Z,52
2016-08-17T05:43:01.364Z,52
2016-08-17T05:44:01.356Z,52
2016-08-17T05:45:01.368Z,56
2016-08-17T05:46:01.356Z,56
2016-08-17T05:47:01.356Z,60
2016-08-17T05:48:01.356Z,56
2016-08-17T05:49:01.365Z,56
2016-08-17T05:50:01.365Z,52
2016-08-17T05:51:01.360Z,48
2016-08-17T05:52:01.356Z,48
2016-08-17T05:53:01.356Z,48
2016-08-17T05:54:01.356Z,48
2016-08-17T05:55:01.360Z,52
2016-08-17T05:56:01.356Z,52
2016-08-17T05:57:00.636Z,56
2016-08-17T05:58:00.637Z,56
2016-08-17T05:59:01.356Z,56
2016-08-17T06:00:01.357Z,60
2016-08-17T06:01:01.357Z,60
2016-08-17T06:02:01.360Z,60
2016-08-17T06:03:01.357Z,60
2016-08-17T06:04:01.356Z,60
2016-08-17T06:05:01.356Z,64
2016-08-17T06:06:01.357Z,60
2016-08-17T06:07:01.357Z,60
2016-08-17T06:08:01.353Z,60
2016-08-17T06:09:01.357Z,64
2016-08-17T06:10:01.356Z,68
2016-08-17T06:11:01.358Z,68
2016-08-17T06:12:01.365Z,72
2016-08-17T06:13:01.365Z,76
2016-08-17T06:14:01.361Z,80
2016-08-17T06:15:01.357Z,80
2016-08-17T06:16:01.362Z,80
2016-08-17T06:17:01.378Z,80
2016-08-17T06:18:01.357Z,80
2016-08-17T06:19:01.357Z,76
2016-08-17T06:20:01.358Z,76
2016-08-17T06:21:01.358Z,76
2016-08-17T06:22:01.362Z,72
2016-08-17T06:23:01.358Z,72
2016-08-17T06:24:01.366Z,72
2016-08-17T06:25:01.362Z,72
2016-08-17T06:26:01.363Z,68
2016-08-17T06:27:01.360Z,68
2016-08-17T06:28:01.373Z,68
2016-08-17T06:29:01.362Z,64
2016-08-17T06:30:01.370Z,64
2016-08-17T06:31:01.364Z,60
2016-08-17T06:32:01.561Z,60
2016-08-17T06:33:01.422Z,64
2016-08-17T06:34:01.363Z,68
2016-08-17T06:35:01.364Z,72
2016-08-17T06:36:01.363Z,80
2016-08-17T06:37:01.375Z,92
2016-08-17T06:38:01.366Z,104
2016-08-17T06:39:01.359Z,108
2016-08-17T06:40:00.642Z,100
2016-08-17T06:41:01.373Z,100
2016-08-17T06:42:01.362Z,104
2016-08-17T06:43:01.365Z,104
2016-08-17T06:44:01.361Z,108
2016-08-17T06:45:01.366Z,116
2016-08-17T06:46:01.371Z,128
2016-08-17T06:47:07.971Z,140
2016-08-17T06:48:01.366Z,148
2016-08-17T06:49:01.363Z,176
2016-08-17T06:50:01.367Z,232
2016-08-17T06:51:01.366Z,316
2016-08-17T06:52:01.366Z,224
2016-08-17T06:53:01.367Z,236
2016-08-17T06:54:01.367Z,264
2016-08-17T06:55:01.371Z,320
2016-08-17T06:56:01.384Z,252
2016-08-17T06:57:01.367Z,208
2016-08-17T06:58:01.367Z,212
2016-08-17T06:59:01.367Z,180
2016-08-17T07:00:01.367Z,272
2016-08-17T07:01:01.367Z,204
2016-08-17T07:02:01.366Z,176
2016-08-17T07:03:01.367Z,216
2016-08-17T07:04:01.367Z,156
2016-08-17T07:05:01.367Z,200
2016-08-17T07:06:01.367Z,132
2016-08-17T07:07:01.367Z,128
2016-08-17T07:08:01.367Z,128
2016-08-17T07:09:01.384Z,136
2016-08-17T07:10:01.371Z,132
2016-08-17T07:11:01.371Z,136
2016-08-17T07:12:01.383Z,116
2016-08-17T07:13:01.371Z,112
2016-08-17T07:14:01.371Z,112
2016-08-17T07:15:01.371Z,108
2016-08-17T07:16:01.387Z,108
2016-08-17T07:17:01.370Z,112
2016-08-17T07:18:01.371Z,112
2016-08-17T07:19:01.384Z,120
2016-08-17T07:20:01.375Z,120
2016-08-17T07:21:01.371Z,144
2016-08-17T07:22:01.375Z,136
2016-08-17T07:23:01.375Z,168
2016-08-17T07:24:01.376Z,164
2016-08-17T07:25:01.375Z,232
2016-08-17T07:26:01.375Z,192
2016-08-17T07:27:01.375Z,176
2016-08-17T07:28:01.375Z,168
2016-08-17T07:28:59.934Z,188
2016-08-17T07:30:01.376Z,164
2016-08-17T07:31:01.380Z,216
2016-08-17T07:32:01.380Z,172
2016-08-17T07:33:01.380Z,200
2016-08-17T07:34:01.676Z,176
2016-08-17T07:35:01.380Z,164
2016-08-17T07:36:01.380Z,164
2016-08-17T07:37:01.380Z,164
2016-08-17T07:38:01.387Z,176
2016-08-17T07:39:01.384Z,148
2016-08-17T07:40:01.392Z,160
2016-08-17T07:41:01.385Z,196
2016-08-17T07:42:01.384Z,272
2016-08-17T07:43:01.384Z,172
2016-08-17T07:44:01.384Z,200
2016-08-17T07:45:01.388Z,196
2016-08-17T07:46:01.385Z,196
2016-08-17T07:47:01.385Z,164
2016-08-17T07:48:01.389Z,164
2016-08-17T07:49:01.396Z,180
2016-08-17T07:50:01.393Z,228
2016-08-17T07:51:01.397Z,156
2016-08-17T07:52:01.389Z,152
2016-08-17T07:53:01.388Z,144
2016-08-17T07:54:01.389Z,144
2016-08-17T07:55:01.400Z,144
2016-08-17T07:56:01.392Z,188
2016-08-17T07:57:01.393Z,196
2016-08-17T07:58:01.409Z,140
2016-08-17T07:59:01.392Z,160
2016-08-17T08:00:01.392Z,140
2016-08-17T08:01:01.397Z,208
2016-08-17T08:02:01.397Z,164
2016-08-17T08:03:01.400Z,140
2016-08-17T08:04:01.408Z,136
2016-08-17T08:05:01.406Z,176
2016-08-17T08:06:01.404Z,164
2016-08-17T08:07:01.409Z,212
2016-08-17T08:08:01.408Z,268
2016-08-17T08:09:01.400Z,248
2016-08-17T08:10:01.408Z,192
2016-08-17T08:11:01.401Z,200
2016-08-17T08:12:01.409Z,208
2016-08-17T08:13:01.400Z,152
2016-08-17T08:14:01.409Z,176
2016-08-17T08:15:01.405Z,184
2016-08-17T08:16:01.405Z,280
2016-08-17T08:17:01.405Z,296
2016-08-17T08:18:00.689Z,260
2016-08-17T08:19:01.409Z,144
2016-08-17T08:20:01.413Z,280
2016-08-17T08:21:01.409Z,304
2016-08-17T08:22:01.408Z,304
2016-08-17T08:23:01.413Z,300
2016-08-17T08:24:01.413Z,280
2016-08-17T08:25:01.412Z,292
2016-08-17T08:26:01.413Z,256
2016-08-17T08:27:01.413Z,256
2016-08-17T08:28:01.418Z,260
2016-08-17T08:29:01.417Z,248
2016-08-17T08:30:01.425Z,300
2016-08-17T08:31:01.417Z,284
2016-08-17T08:32:01.422Z,296
2016-08-17T08:33:01.435Z,280
2016-08-17T08:34:00.705Z,188
2016-08-17T08:35:01.422Z,156
2016-08-17T08:36:01.421Z,152
2016-08-17T08:37:00.705Z,160
2016-08-17T08:38:01.425Z,172
2016-08-17T08:39:01.440Z,180
2016-08-17T08:40:01.426Z,188
2016-08-17T08:41:00.710Z,176
2016-08-17T08:42:00.710Z,188
2016-08-17T08:43:01.430Z,160
2016-08-17T08:44:01.429Z,152
2016-08-17T08:45:01.430Z,144
2016-08-17T08:46:01.434Z,144
2016-08-17T08:47:01.434Z,260
2016-08-17T08:48:01.434Z,268
2016-08-17T08:49:01.442Z,288
2016-08-17T08:50:01.438Z,284
2016-08-17T08:51:01.438Z,268
2016-08-17T08:52:01.437Z,212
2016-08-17T08:53:01.446Z,236
2016-08-17T08:54:01.446Z,192
2016-08-17T08:55:01.442Z,232
2016-08-17T08:56:01.446Z,196
2016-08-17T08:57:01.446Z,196
2016-08-17T08:58:01.454Z,228
2016-08-17T08:59:01.446Z,260
2016-08-17T09:00:01.446Z,264
2016-08-17T09:01:01.451Z,220
2016-08-17T09:02:01.450Z,272
2016-08-17T09:03:01.451Z,272
2016-08-17T09:04:01.450Z,272
2016-08-17T09:05:01.462Z,268
2016-08-17T09:06:01.458Z,272
2016-08-17T09:07:01.454Z,260
2016-08-17T09:08:01.518Z,240
2016-08-17T09:09:01.458Z,244
2016-08-17T09:10:01.459Z,236
2016-08-17T09:11:01.471Z,224
2016-08-17T09:12:01.462Z,216
2016-08-17T09:13:01.463Z,180
2016-08-17T09:14:01.463Z,172
2016-08-17T09:15:01.471Z,172
2016-08-17T09:16:01.467Z,208
2016-08-17T09:17:01.466Z,216
2016-08-17T09:18:01.467Z,216
2016-08-17T09:19:01.483Z,192
2016-08-17T09:20:01.479Z,200
2016-08-17T09:21:01.475Z,156
2016-08-17T09:22:01.475Z,188
2016-08-17T09:23:01.475Z,148
2016-08-17T09:24:01.475Z,184
2016-08-17T09:25:01.478Z,208
2016-08-17T09:26:01.479Z,168
2016-08-17T09:27:01.479Z,136
2016-08-17T09:28:01.495Z,136
2016-08-17T09:29:01.483Z,224
2016-08-17T09:30:01.483Z,192
2016-08-17T09:31:01.487Z,184
2016-08-17T09:32:01.487Z,168
2016-08-17T09:33:01.491Z,176
2016-08-17T09:34:01.491Z,224
2016-08-17T09:35:01.492Z,244
2016-08-17T09:36:01.503Z,220
2016-08-17T09:37:01.495Z,240
2016-08-17T09:38:01.512Z,224
2016-08-17T09:39:01.496Z,184
2016-08-17T09:40:00.779Z,184
2016-08-17T09:41:01.499Z,236
2016-08-17T09:42:01.504Z,220
2016-08-17T09:43:01.503Z,216
2016-08-17T09:44:01.504Z,196
2016-08-17T09:45:01.503Z,132
2016-08-17T09:46:01.507Z,128
2016-08-17T09:47:01.508Z,140
2016-08-17T09:48:01.519Z,152
2016-08-17T09:49:01.531Z,152
2016-08-17T09:50:01.528Z,156
2016-08-17T09:51:01.512Z,164
2016-08-17T09:52:01.516Z,184
2016-08-17T09:53:01.516Z,188
2016-08-17T09:54:01.520Z,192
2016-08-17T09:55:01.520Z,196
2016-08-17T09:56:00.804Z,200
2016-08-17T09:57:01.524Z,196
2016-08-17T09:58:01.524Z,196
2016-08-17T09:59:01.532Z,196
2016-08-17T10:00:01.529Z,132
2016-08-17T10:01:01.528Z,148
2016-08-17T10:02:01.532Z,132
2016-08-17T10:03:01.553Z,124
2016-08-17T10:04:01.532Z,124
2016-08-17T10:05:01.536Z,124
2016-08-17T10:06:01.536Z,200
2016-08-17T10:07:01.549Z,208
2016-08-17T10:08:01.549Z,172
2016-08-17T10:09:01.540Z,168
2016-08-17T10:10:01.544Z,172
2016-08-17T10:11:01.557Z,180
2016-08-17T10:12:01.545Z,184
2016-08-17T10:13:01.549Z,184
2016-08-17T10:14:01.557Z,192
2016-08-17T10:15:01.553Z,200
2016-08-17T10:16:01.553Z,192
2016-08-17T10:17:01.564Z,160
2016-08-17T10:18:01.556Z,156
2016-08-17T10:19:01.561Z,152
2016-08-17T10:20:00.837Z,164
2016-08-17T10:21:01.561Z,132
2016-08-17T10:22:01.561Z,140
2016-08-17T10:23:01.565Z,160
2016-08-17T10:24:01.577Z,144
2016-08-17T10:25:01.566Z,148
2016-08-17T10:26:01.569Z,144
2016-08-17T10:27:01.569Z,152
2016-08-17T10:28:01.570Z,160
2016-08-17T10:29:01.573Z,132
2016-08-17T10:30:01.573Z,128
2016-08-17T10:31:01.574Z,132
2016-08-17T10:32:01.577Z,140
2016-08-17T10:33:01.585Z,176
2016-08-17T10:34:01.589Z,140
2016-08-17T10:35:01.611Z,148
2016-08-17T10:36:01.581Z,176
2016-08-17T10:37:01.598Z,168
2016-08-17T10:38:01.585Z,164
2016-08-17T10:39:01.597Z,128
2016-08-17T10:40:01.617Z,132
2016-08-17T10:41:01.594Z,172
2016-08-17T10:42:01.606Z,132
2016-08-17T10:43:02.545Z,120
2016-08-17T10:44:01.619Z,144
2016-08-17T10:45:01.601Z,140
2016-08-17T10:46:01.598Z,144
2016-08-17T10:47:01.601Z,148
2016-08-17T10:48:01.602Z,140
2016-08-17T10:49:01.605Z,124
2016-08-17T10:50:01.605Z,124
2016-08-17T10:51:01.610Z,148
2016-08-17T10:52:01.610Z,136
2016-08-17T10:53:01.613Z,124
2016-08-17T10:54:01.610Z,132
2016-08-17T10:55:01.614Z,108
2016-08-17T10:56:01.614Z,100
2016-08-17T10:57:01.619Z,96
2016-08-17T10:58:01.617Z,88
2016-08-17T10:59:01.622Z,84
2016-08-17T11:00:01.632Z,80
2016-08-17T11:01:01.634Z,80
2016-08-17T11:02:01.626Z,76
2016-08-17T11:03:01.626Z,80
2016-08-17T11:04:01.627Z,80
2016-08-17T11:05:01.630Z,84
2016-08-17T11:06:01.630Z,92
2016-08-17T11:07:01.635Z,96
2016-08-17T11:08:01.634Z,112
2016-08-17T11:09:01.634Z,120
2016-08-17T11:10:01.639Z,140
2016-08-17T11:11:01.649Z,180
2016-08-17T11:12:01.655Z,152
2016-08-17T11:13:01.643Z,156
2016-08-17T11:14:01.642Z,156
2016-08-17T11:15:01.648Z,120
2016-08-17T11:16:01.647Z,100
2016-08-17T11:17:01.654Z,120
2016-08-17T11:18:01.663Z,92
2016-08-17T11:19:01.658Z,84
2016-08-17T11:20:01.662Z,72
2016-08-17T11:21:01.662Z,68
2016-08-17T11:22:01.666Z,64
2016-08-17T11:23:01.664Z,64
2016-08-17T11:24:01.660Z,64
2016-08-17T11:25:01.668Z,60
2016-08-17T11:26:01.675Z,60
2016-08-17T11:27:01.670Z,60
2016-08-17T11:28:01.668Z,60
2016-08-17T11:29:01.666Z,60
2016-08-17T11:30:01.686Z,60
2016-08-17T11:31:01.671Z,60
2016-08-17T11:32:01.159Z,56
2016-08-17T11:33:01.683Z,60
2016-08-17T11:34:01.679Z,60
2016-08-17T11:35:01.679Z,64
2016-08-17T11:36:01.681Z,64
2016-08-17T11:37:01.691Z,68
2016-08-17T11:38:01.683Z,68
2016-08-17T11:39:01.687Z,64
2016-08-17T11:40:01.687Z,68
2016-08-17T11:41:01.687Z,68
2016-08-17T11:42:01.691Z,72
2016-08-17T11:43:01.691Z,72
2016-08-17T11:44:01.703Z,76
2016-08-17T11:45:01.708Z,76
2016-08-17T11:46:01.695Z,80
2016-08-17T11:47:01.723Z,80
2016-08-17T11:48:01.699Z,80
2016-08-17T11:49:01.699Z,88
2016-08-17T11:50:01.708Z,92
2016-08-17T11:51:01.723Z,100
2016-08-17T11:52:00.991Z,104
2016-08-17T11:53:01.707Z,112
2016-08-17T11:54:01.711Z,108
2016-08-17T11:55:01.720Z,112
2016-08-17T11:56:01.712Z,112
2016-08-17T11:57:01.716Z,108
2016-08-17T11:58:01.716Z,108
2016-08-17T11:59:01.728Z,104
2016-08-17T12:00:01.720Z,104
2016-08-17T12:01:01.719Z,100
2016-08-17T12:02:01.724Z,104
2016-08-17T12:03:01.724Z,100
2016-08-17T12:04:01.003Z,104
2016-08-17T12:05:01.728Z,104
2016-08-17T12:06:01.728Z,104
2016-08-17T12:07:01.736Z,100
2016-08-17T12:08:01.731Z,88
2016-08-17T12:09:01.732Z,84
2016-08-17T12:10:01.737Z,84
2016-08-17T12:11:01.016Z,76
2016-08-17T12:12:01.752Z,76
2016-08-17T12:13:01.020Z,72
2016-08-17T12:14:01.740Z,68
2016-08-17T12:15:01.740Z,68
2016-08-17T12:16:01.856Z,68
2016-08-17T12:17:01.744Z,68
2016-08-17T12:18:01.748Z,64
2016-08-17T12:19:01.748Z,64
2016-08-17T12:20:01.753Z,64
2016-08-17T12:21:01.757Z,60
2016-08-17T12:22:01.753Z,60
2016-08-17T12:23:01.761Z,60
2016-08-17T12:24:01.757Z,60
2016-08-17T12:25:01.769Z,60
2016-08-17T12:26:01.760Z,60
2016-08-17T12:27:01.773Z,60
2016-08-17T12:28:01.769Z,64
2016-08-17T12:29:01.764Z,60
2016-08-17T12:30:01.765Z,64
2016-08-17T12:31:01.768Z,64
2016-08-17T12:32:01.044Z,68
2016-08-17T12:33:01.769Z,68
2016-08-17T12:34:01.777Z,72
2016-08-17T12:35:01.778Z,76
2016-08-17T12:36:01.773Z,84
2016-08-17T12:37:01.777Z,124
2016-08-17T12:38:01.778Z,140
2016-08-17T12:39:01.781Z,148
2016-08-17T12:40:01.782Z,132
2016-08-17T12:41:01.789Z,104
2016-08-17T12:42:01.785Z,96
2016-08-17T12:43:01.801Z,96
2016-08-17T12:44:01.789Z,96
2016-08-17T12:45:01.789Z,96
2016-08-17T12:46:01.797Z,92
2016-08-17T12:47:01.798Z,92
2016-08-17T12:48:01.794Z,92
2016-08-17T12:49:01.798Z,88
2016-08-17T12:50:01.797Z,92
2016-08-17T12:51:01.797Z,92
2016-08-17T12:52:01.810Z,84
2016-08-17T12:53:01.801Z,84
2016-08-17T12:54:01.809Z,84
2016-08-17T12:55:01.818Z,84
2016-08-17T12:56:01.810Z,84
2016-08-17T12:57:01.810Z,84
2016-08-17T12:58:01.810Z,88
2016-08-17T12:59:01.809Z,84
2016-08-17T13:00:01.814Z,80
2016-08-17T13:01:01.814Z,80
2016-08-17T13:02:01.813Z,80
2016-08-17T13:03:01.826Z,80
2016-08-17T13:04:01.818Z,80
2016-08-17T13:05:01.822Z,72
2016-08-17T13:06:01.822Z,76
2016-08-17T13:07:01.834Z,76
2016-08-17T13:08:01.994Z,76
2016-08-17T13:09:01.826Z,76
2016-08-17T13:10:01.827Z,80
2016-08-17T13:11:01.830Z,76
2016-08-17T13:12:01.838Z,80
2016-08-17T13:13:01.834Z,84
2016-08-17T13:14:01.839Z,96
2016-08-17T13:15:01.834Z,112
2016-08-17T13:16:01.838Z,116
2016-08-17T13:17:01.839Z,108
2016-08-17T13:18:01.834Z,112
2016-08-17T13:19:01.842Z,108
2016-08-17T13:20:01.843Z,116
2016-08-17T13:21:01.843Z,112
2016-08-17T13:22:01.847Z,112
2016-08-17T13:23:01.852Z,96
2016-08-17T13:24:01.855Z,96
2016-08-17T13:25:01.851Z,88
2016-08-17T13:26:01.851Z,88
2016-08-17T13:27:01.851Z,84
2016-08-17T13:28:01.854Z,80
2016-08-17T13:29:01.855Z,80
2016-08-17T13:30:01.135Z,80
2016-08-17T13:31:01.859Z,80
2016-08-17T13:32:01.860Z,80
2016-08-17T13:33:01.863Z,80
2016-08-17T13:34:01.863Z,80
2016-08-17T13:35:01.867Z,76
2016-08-17T13:36:01.867Z,76
2016-08-17T13:37:01.147Z,76
2016-08-17T13:38:01.871Z,76
2016-08-17T13:39:01.875Z,76
2016-08-17T13:40:01.871Z,72
2016-08-17T13:41:01.871Z,76
2016-08-17T13:42:01.879Z,72
2016-08-17T13:43:02.128Z,72
2016-08-17T13:44:01.876Z,68
2016-08-17T13:45:01.880Z,68
2016-08-17T13:46:01.883Z,68
2016-08-17T13:47:01.880Z,64
2016-08-17T13:48:01.884Z,64
2016-08-17T13:49:01.885Z,64
2016-08-17T13:50:01.891Z,60
2016-08-17T13:51:01.887Z,60
2016-08-17T13:52:01.888Z,60
2016-08-17T13:53:00.460Z,60
2016-08-17T13:54:01.892Z,60
2016-08-17T13:55:01.892Z,64
2016-08-17T13:56:01.891Z,64
2016-08-17T13:57:01.895Z,64
2016-08-17T13:58:01.895Z,64
2016-08-17T13:59:01.899Z,68
2016-08-17T14:00:02.172Z,64
2016-08-17T14:01:01.904Z,68
2016-08-17T14:02:01.900Z,68
2016-08-17T14:03:01.904Z,68
2016-08-17T14:04:01.903Z,72
2016-08-17T14:05:01.904Z,68
2016-08-17T14:06:01.908Z,72
2016-08-17T14:07:01.908Z,72
2016-08-17T14:08:01.909Z,72
2016-08-17T14:09:01.189Z,72
2016-08-17T14:10:01.913Z,72
2016-08-17T14:11:01.912Z,72
2016-08-17T14:12:01.920Z,72
2016-08-17T14:13:01.916Z,72
2016-08-17T14:14:01.917Z,76
2016-08-17T14:15:01.920Z,68